Time;durP1;ratioP1;P1;durP2;ratioP2;P2;SDS_P1;SDS_P2;PMS_P1;PMS_P2;Temp;Humidity;BMP_temperature;BMP_pressure;BME280_temperature;BME280_humidity;BME280_pressure;Samples;Min_cycle;Max_cycle;Signal;HPM_P1;HPM_P2
2023/09/26 00:01:11;;;;;;;2.78;1.50;;;21.70;81.50;;;;;;5878504;22;45428;-64
2023/09/26 00:03:54;;;;;;;2.33;1.30;;;21.70;81.60;;;;;;5886909;22;47188;-65
2023/09/26 00:06:21;;;;;;;3.65;1.70;;;21.70;81.50;;;;;;5906118;22;45334;-65
2023/09/26 00:08:54;;;;;;;2.83;1.35;;;21.70;81.50;;;;;;5936148;22;45373;-64
2023/09/26 00:11:22;;;;;;;2.03;1.27;;;21.70;81.60;;;;;;5897468;22;45166;-64
2023/09/26 00:14:29;;;;;;;2.50;1.63;;;21.80;81.50;;;;;;5876687;22;46513;-64
2023/09/26 00:20:23;;;;;;;2.53;1.25;;;21.70;81.70;;;;;;5868395;22;45396;-64
2023/09/26 00:22:54;;;;;;;2.65;1.25;;;21.70;81.40;;;;;;5861615;22;45393;-64
2023/09/26 00:25:45;;;;;;;4.53;1.73;;;21.70;81.50;;;;;;5971307;22;47017;-64
2023/09/26 00:28:13;;;;;;;3.88;1.45;;;21.80;81.40;;;;;;5882343;22;45282;-64
2023/09/26 00:30:42;;;;;;;2.67;1.52;;;21.70;81.50;;;;;;5899822;22;45638;-64
2023/09/26 00:33:27;;;;;;;3.67;1.60;;;21.70;81.20;;;;;;5898040;22;45461;-64
2023/09/26 00:36:07;;;;;;;2.70;1.45;;;21.70;81.40;;;;;;5902437;22;47508;-64
2023/09/26 00:38:34;;;;;;;2.83;1.55;;;21.70;81.20;;;;;;5930905;22;45359;-64
2023/09/26 00:41:00;;;;;;;2.90;1.48;;;21.70;81.30;;;;;;5915686;22;45223;-64
2023/09/26 00:43:31;;;;;;;2.25;1.55;;;21.70;81.10;;;;;;5913159;22;45105;-64
2023/09/26 00:46:01;;;;;;;3.47;1.50;;;21.80;81.10;;;;;;5905418;22;46609;-64
2023/09/26 00:48:40;;;;;;;2.65;1.40;;;21.70;81.00;;;;;;5899752;22;45349;-64
2023/09/26 00:51:26;;;;;;;3.80;1.70;;;21.70;81.00;;;;;;5883033;22;45278;-63
2023/09/26 00:54:06;;;;;;;2.88;1.70;;;21.70;80.70;;;;;;5904060;22;45260;-64
2023/09/26 00:57:14;;;;;;;2.83;1.65;;;21.70;80.60;;;;;;5897585;22;46202;-63
2023/09/26 00:59:43;;;;;;;2.42;1.67;;;21.70;80.50;;;;;;5895773;22;45302;-64
2023/09/26 01:02:32;;;;;;;3.38;1.70;;;21.70;80.30;;;;;;5921642;22;45363;-63
2023/09/26 01:05:20;;;;;;;2.72;1.65;;;21.70;79.90;;;;;;5931618;22;45380;-63
2023/09/26 01:08:00;;;;;;;2.08;1.48;;;21.70;79.80;;;;;;5875986;22;46608;-64
2023/09/26 01:11:01;;;;;;;3.13;1.70;;;21.70;79.80;;;;;;5920641;22;45081;-63
2023/09/26 01:13:37;;;;;;;2.63;1.55;;;21.70;79.80;;;;;;5896040;22;45306;-64
2023/09/26 01:16:32;;;;;;;1.98;1.40;;;21.70;79.80;;;;;;5853491;22;45427;-64
2023/09/26 01:19:02;;;;;;;2.15;1.30;;;21.70;79.80;;;;;;5919193;22;46418;-64
2023/09/26 01:21:55;;;;;;;2.58;1.58;;;21.70;79.80;;;;;;5916422;22;45306;-63
2023/09/26 01:24:37;;;;;;;3.10;1.63;;;21.70;79.80;;;;;;5913172;22;45217;-64
2023/09/26 01:27:06;;;;;;;2.60;1.63;;;21.70;79.80;;;;;;5877506;22;45294;-64
2023/09/26 01:29:33;;;;;;;2.83;1.50;;;21.70;79.80;;;;;;5882974;22;46301;-64
2023/09/26 01:32:01;;;;;;;1.73;1.30;;;21.70;79.80;;;;;;5897703;22;45404;-63
2023/09/26 01:34:50;;;;;;;2.05;1.45;;;21.70;79.80;;;;;;5874103;22;45416;-63
2023/09/26 01:37:49;;;;;;;2.45;1.70;;;21.70;79.80;;;;;;5989669;22;45354;-63
2023/09/26 01:40:58;;;;;;;2.78;1.55;;;21.70;79.80;;;;;;5867477;22;46864;-63
2023/09/26 01:43:38;;;;;;;2.78;1.67;;;21.70;79.80;;;;;;5912592;22;45274;-63
2023/09/26 01:48:46;;;;;;;2.17;1.50;;;21.80;79.90;;;;;;5867811;22;45421;-64
2023/09/26 01:51:13;;;;;;;4.00;1.60;;;21.70;79.80;;;;;;5922510;22;46636;-64
2023/09/26 01:57:41;;;;;;;2.67;1.40;;;21.70;79.80;;;;;;5900251;22;45227;-63
2023/09/26 02:00:34;;;;;;;2.00;1.35;;;21.70;79.80;;;;;;5910783;22;45365;-63
2023/09/26 02:03:03;;;;;;;2.25;1.52;;;21.70;79.80;;;;;;5902268;22;46876;-64
2023/09/26 02:06:14;;;;;;;3.38;1.75;;;21.70;79.70;;;;;;5881841;22;45378;-63
2023/09/26 02:08:41;;;;;;;1.77;1.27;;;21.70;79.20;;;;;;5888097;22;45043;-63
2023/09/26 02:11:26;;;;;;;3.53;1.30;;;21.70;79.00;;;;;;5910518;22;45251;-62
2023/09/26 02:13:56;;;;;;;1.65;1.20;;;21.70;78.80;;;;;;5888436;22;45636;-63
2023/09/26 02:16:55;;;;;;;2.38;1.60;;;21.70;78.70;;;;;;5907596;22;45525;-63
2023/09/26 02:19:45;;;;;;;2.75;1.55;;;21.70;78.50;;;;;;5888056;22;45301;-63
2023/09/26 02:22:46;;;;;;;2.55;1.40;;;21.70;78.40;;;;;;5918050;22;45303;-63
2023/09/26 02:25:25;;;;;;;2.50;1.40;;;21.70;78.30;;;;;;5926694;22;46602;-63
2023/09/26 02:28:15;;;;;;;2.45;1.40;;;21.70;78.10;;;;;;5950918;22;45197;-63
2023/09/26 02:31:19;;;;;;;3.10;1.35;;;21.70;78.00;;;;;;5911370;22;45313;-62
2023/09/26 02:34:05;;;;;;;1.75;1.30;;;21.70;78.20;;;;;;5891508;22;45406;-63
2023/09/26 02:40:17;;;;;;;2.28;1.67;;;21.70;78.50;;;;;;5842837;22;45294;-63
2023/09/26 02:45:26;;;;;;;2.53;1.58;;;21.70;78.50;;;;;;5900012;22;45111;-63
2023/09/26 02:47:54;;;;;;;2.42;1.30;;;21.70;78.50;;;;;;5927535;22;48697;-63
2023/09/26 02:50:32;;;;;;;3.05;1.55;;;21.70;78.40;;;;;;5945931;22;45513;-63
2023/09/26 02:53:21;;;;;;;1.67;1.20;;;21.70;78.30;;;;;;5901558;22;45359;-63
2023/09/26 02:56:01;;;;;;;2.05;1.38;;;21.70;78.20;;;;;;5898438;22;45295;-62
2023/09/26 02:58:41;;;;;;;2.47;1.70;;;21.70;78.20;;;;;;5900152;22;46363;-63
2023/09/26 03:01:32;;;;;;;2.30;1.65;;;21.70;78.20;;;;;;5942661;22;45325;-62
2023/09/26 03:04:26;;;;;;;3.53;1.40;;;21.70;78.10;;;;;;5948131;22;45332;-63
2023/09/26 03:06:54;;;;;;;1.75;1.20;;;21.70;78.10;;;;;;5925879;22;45291;-63
2023/09/26 03:09:52;;;;;;;2.00;1.40;;;21.70;78.00;;;;;;5885586;22;47385;-62
2023/09/26 03:12:36;;;;;;;3.38;1.48;;;21.70;78.10;;;;;;5904195;22;45246;-62
2023/09/26 03:15:03;;;;;;;2.33;1.30;;;21.70;77.90;;;;;;5870855;22;45225;-63
2023/09/26 03:17:52;;;;;;;2.28;1.30;;;21.70;77.80;;;;;;5899790;22;45095;-62
2023/09/26 03:20:51;;;;;;;1.90;1.30;;;21.70;77.50;;;;;;5918545;22;45533;-62
2023/09/26 03:23:36;;;;;;;3.13;1.45;;;21.70;77.30;;;;;;5924135;22;45105;-63
2023/09/26 03:26:09;;;;;;;2.22;1.20;;;21.70;77.20;;;;;;5888365;22;45179;-63
2023/09/26 03:28:51;;;;;;;2.45;1.33;;;21.70;77.10;;;;;;5928380;22;45174;-62
2023/09/26 03:31:38;;;;;;;2.25;1.42;;;21.70;76.90;;;;;;5892261;22;47295;-62
2023/09/26 03:34:26;;;;;;;1.52;1.20;;;21.60;76.80;;;;;;5889296;22;45425;-63
2023/09/26 03:37:17;;;;;;;2.25;1.23;;;21.60;76.60;;;;;;5886589;22;45326;-63
2023/09/26 03:46:17;;;;;;;2.28;1.33;;;21.60;76.90;;;;;;5905625;22;45442;-63
2023/09/26 03:49:09;;;;;;;1.90;1.17;;;21.60;77.10;;;;;;5932833;22;45457;-62
2023/09/26 03:51:52;;;;;;;1.60;1.17;;;21.70;77.10;;;;;;5904021;22;45232;-63
2023/09/26 03:54:21;;;;;;;1.92;1.10;;;21.70;77.30;;;;;;5929615;22;46608;-63
2023/09/26 03:57:15;;;;;;;1.83;1.25;;;21.70;77.50;;;;;;5906270;22;45250;-62
2023/09/26 03:59:45;;;;;;;2.25;1.25;;;21.70;77.50;;;;;;5904606;22;45448;-63
2023/09/26 04:02:33;;;;;;;2.60;1.33;;;21.70;77.50;;;;;;5921958;22;45471;-62
2023/09/26 04:05:15;;;;;;;1.77;1.20;;;21.70;77.50;;;;;;5931030;22;47255;-63
2023/09/26 04:08:17;;;;;;;2.10;1.08;;;21.70;77.30;;;;;;5883244;22;45439;-62
2023/09/26 04:10:47;;;;;;;1.80;1.30;;;21.70;77.10;;;;;;5892744;22;45428;-62
2023/09/26 04:13:13;;;;;;;2.13;1.25;;;21.70;77.30;;;;;;5896039;22;45308;-63
2023/09/26 04:16:17;;;;;;;2.33;1.20;;;21.70;77.30;;;;;;5891077;22;46658;-62
2023/09/26 04:18:45;;;;;;;2.70;1.45;;;21.60;76.70;;;;;;5884550;22;45365;-63
2023/09/26 04:21:12;;;;;;;2.78;1.13;;;21.60;76.60;;;;;;5903141;22;45199;-62
2023/09/26 04:23:54;;;;;;;2.20;1.20;;;21.70;76.40;;;;;;5877430;22;45513;-65
2023/09/26 04:29:24;;;;;;;2.50;1.43;;;21.60;75.50;;;;;;5925226;22;45561;-63
2023/09/26 04:31:51;;;;;;;3.20;1.67;;;21.60;74.10;;;;;;5932947;22;45411;-63
2023/09/26 04:34:44;;;;;;;3.47;1.50;;;21.60;72.90;;;;;;5906067;22;45167;-63
2023/09/26 04:37:36;;;;;;;2.60;1.35;;;21.50;71.10;;;;;;5879548;22;46491;-62
2023/09/26 04:40:17;;;;;;;3.08;1.60;;;21.50;70.20;;;;;;5948131;22;45208;-64
2023/09/26 04:42:48;;;;;;;3.65;1.35;;;21.50;70.40;;;;;;5953070;22;45317;-65
2023/09/26 04:45:15;;;;;;;3.42;1.73;;;21.40;70.00;;;;;;5963808;22;45454;-63
2023/09/26 04:48:10;;;;;;;3.83;1.33;;;21.40;70.00;;;;;;5962264;22;47584;-62
2023/09/26 04:50:59;;;;;;;1.75;1.33;;;21.40;69.20;;;;;;5928303;22;45624;-63
2023/09/26 04:53:30;;;;;;;1.60;1.38;;;21.40;69.30;;;;;;5898847;22;45345;-64
2023/09/26 04:56:23;;;;;;;2.50;1.50;;;21.40;69.60;;;;;;5976892;22;45240;-63
2023/09/26 04:58:52;;;;;;;1.98;1.23;;;21.40;70.40;;;;;;5916573;22;46678;-63
2023/09/26 05:01:29;;;;;;;3.47;1.40;;;21.40;70.90;;;;;;5914059;22;45283;-63
2023/09/26 05:04:01;;;;;;;1.77;1.20;;;21.40;71.30;;;;;;5953697;22;45277;-63
2023/09/26 05:06:31;;;;;;;1.77;1.30;;;21.50;71.70;;;;;;5958769;22;45178;-63
2023/09/26 05:09:31;;;;;;;2.50;1.58;;;21.50;72.40;;;;;;6002922;22;46304;-64
2023/09/26 05:12:11;;;;;;;3.35;1.42;;;21.50;72.10;;;;;;5959743;22;45208;-64
2023/09/26 05:17:43;;;;;;;2.00;1.70;;;21.50;72.40;;;;;;5886314;22;45127;-62
2023/09/26 05:20:12;;;;;;;1.80;1.42;;;21.60;72.60;;;;;;5917259;22;47410;-63
2023/09/26 05:26:20;;;;;;;2.22;1.40;;;21.50;72.70;;;;;;5879626;22;45247;-63
2023/09/26 05:31:33;;;;;;;2.83;1.70;;;21.50;72.80;;;;;;5874749;22;45291;-63
2023/09/26 05:34:41;;;;;;;1.35;1.20;;;21.50;72.90;;;;;;5951799;22;45017;-62
2023/09/26 05:37:15;;;;;;;1.58;1.00;;;21.60;73.10;;;;;;5887856;22;45213;-63
2023/09/26 05:40:09;;;;;;;1.48;1.10;;;21.50;73.20;;;;;;5918510;22;45467;-63
2023/09/26 05:42:40;;;;;;;2.15;1.10;;;21.60;74.50;;;;;;5910282;22;45859;-63
2023/09/26 05:45:29;;;;;;;2.28;1.20;;;21.60;73.60;;;;;;5893252;22;45308;-63
2023/09/26 05:48:23;;;;;;;3.42;1.40;;;21.60;73.80;;;;;;5954379;22;45425;-63
2023/09/26 05:51:26;;;;;;;2.45;1.40;;;21.60;74.10;;;;;;5935714;22;45243;-62
2023/09/26 05:53:54;;;;;;;1.80;1.27;;;21.60;74.10;;;;;;5903198;22;46560;-62
2023/09/26 05:56:38;;;;;;;2.03;1.42;;;21.60;74.20;;;;;;5904368;22;45281;-62
2023/09/26 05:59:29;;;;;;;1.48;1.17;;;21.60;74.10;;;;;;5921524;22;45314;-62
2023/09/26 06:02:17;;;;;;;2.17;1.50;;;21.60;74.20;;;;;;5884020;22;45242;-62
2023/09/26 06:04:46;;;;;;;2.00;1.40;;;21.60;74.30;;;;;;5934632;22;46097;-63
2023/09/26 06:07:21;;;;;;;2.42;1.30;;;21.60;74.20;;;;;;5890450;22;45312;-62
2023/09/26 06:09:48;;;;;;;2.03;1.33;;;21.60;74.20;;;;;;5912947;22;45381;-63
2023/09/26 06:12:17;;;;;;;1.88;1.30;;;21.60;74.20;;;;;;5901896;22;45178;-63
2023/09/26 06:15:05;;;;;;;2.00;1.40;;;21.60;74.20;;;;;;5922561;22;45461;-63
2023/09/26 06:17:34;;;;;;;1.70;1.08;;;21.60;74.20;;;;;;5911993;22;45280;-63
2023/09/26 06:20:38;;;;;;;3.03;1.63;;;21.60;74.40;;;;;;5931062;22;45415;-62
2023/09/26 06:23:22;;;;;;;1.80;1.27;;;21.60;74.20;;;;;;5889406;22;45440;-62
2023/09/26 06:26:03;;;;;;;1.83;1.10;;;21.60;74.10;;;;;;5902054;22;46621;-63
2023/09/26 06:28:49;;;;;;;1.95;1.33;;;21.60;74.30;;;;;;5944889;22;45221;-62
2023/09/26 06:31:16;;;;;;;1.35;1.08;;;21.60;74.20;;;;;;5940162;22;45111;-62
2023/09/26 06:34:11;;;;;;;2.78;1.55;;;21.60;74.30;;;;;;5923891;22;45234;-62
2023/09/26 06:37:01;;;;;;;1.92;1.20;;;21.60;74.40;;;;;;5947610;22;46446;-62
2023/09/26 06:39:43;;;;;;;1.42;1.10;;;21.60;74.40;;;;;;5921517;22;45430;-63
2023/09/26 06:42:32;;;;;;;2.17;1.42;;;21.60;74.60;;;;;;5893350;22;45467;-63
2023/09/26 06:45:17;;;;;;;3.90;0.98;;;21.60;74.80;;;;;;5918261;22;45280;-61
2023/09/26 06:48:11;;;;;;;3.17;1.40;;;21.60;74.80;;;;;;5928464;22;46060;-62
2023/09/26 06:50:53;;;;;;;2.03;1.27;;;21.60;75.00;;;;;;5888447;22;45500;-63
2023/09/26 06:53:24;;;;;;;3.63;1.40;;;21.60;75.10;;;;;;5908938;22;45520;-62
2023/09/26 06:59:32;;;;;;;1.95;1.40;;;21.60;75.10;;;;;;5863053;22;45682;-63
2023/09/26 07:02:01;;;;;;;1.98;1.35;;;21.60;75.20;;;;;;5881420;22;45259;-63
2023/09/26 07:04:56;;;;;;;2.08;1.35;;;21.70;75.40;;;;;;5919509;22;45379;-62
2023/09/26 07:07:44;;;;;;;2.50;1.30;;;21.60;75.30;;;;;;5946932;22;45571;-62
2023/09/26 07:10:12;;;;;;;2.25;1.20;;;21.70;75.50;;;;;;5905635;22;46265;-63
2023/09/26 07:13:05;;;;;;;1.85;1.00;;;21.70;75.70;;;;;;5893175;22;45329;-62
2023/09/26 07:18:29;;;;;;;2.13;1.42;;;21.60;75.70;;;;;;5885726;22;45356;-62
2023/09/26 07:24:22;;;;;;;2.80;1.50;;;21.60;75.70;;;;;;5898096;22;45246;-62
2023/09/26 07:27:24;;;;;;;2.35;1.30;;;21.60;75.80;;;;;;5900110;22;45529;-62
2023/09/26 07:29:52;;;;;;;2.13;1.27;;;21.70;75.70;;;;;;5902789;22;45263;-63
2023/09/26 07:32:20;;;;;;;1.58;1.02;;;21.70;75.70;;;;;;5923444;22;46354;-63
2023/09/26 07:34:57;;;;;;;3.03;1.40;;;21.60;75.60;;;;;;5878856;22;45485;-62
2023/09/26 07:37:50;;;;;;;1.88;1.38;;;21.70;75.70;;;;;;5897400;22;45429;-62
2023/09/26 07:40:17;;;;;;;2.20;1.40;;;21.70;75.70;;;;;;5899617;22;45387;-62
2023/09/26 07:43:06;;;;;;;2.40;1.33;;;21.70;75.90;;;;;;5901527;22;46240;-62
2023/09/26 07:45:33;;;;;;;2.50;1.40;;;21.70;76.00;;;;;;5910593;22;45238;-62
2023/09/26 07:48:25;;;;;;;1.38;1.02;;;21.70;76.20;;;;;;5911801;22;45338;-62
2023/09/26 07:51:06;;;;;;;1.40;1.00;;;21.70;76.20;;;;;;5937305;22;45270;-62
2023/09/26 07:54:11;;;;;;;1.55;1.10;;;21.70;76.30;;;;;;5897144;22;46084;-62
2023/09/26 07:57:04;;;;;;;1.88;1.33;;;21.70;76.50;;;;;;5884840;22;45341;-62
2023/09/26 07:59:56;;;;;;;1.73;1.23;;;21.70;76.60;;;;;;5944043;22;45178;-62
2023/09/26 08:02:42;;;;;;;2.00;1.25;;;21.70;76.80;;;;;;5900983;22;45224;-63
2023/09/26 08:05:47;;;;;;;1.95;1.10;;;21.70;76.90;;;;;;5949730;22;46276;-62
2023/09/26 08:08:36;;;;;;;1.65;1.10;;;21.70;77.10;;;;;;5876480;22;45108;-62
2023/09/26 08:11:08;;;;;;;1.70;1.13;;;21.70;77.30;;;;;;5906883;22;45484;-62
2023/09/26 08:13:43;;;;;;;1.92;1.13;;;21.80;77.60;;;;;;5900971;22;45430;-62
2023/09/26 08:16:10;;;;;;;1.27;1.00;;;21.70;77.70;;;;;;5943741;22;46284;-63
2023/09/26 08:18:37;;;;;;;2.00;1.13;;;21.80;77.80;;;;;;5891923;22;45504;-63
2023/09/26 08:23:46;;;;;;;1.00;0.95;;;21.80;78.00;;;;;;5866745;22;45865;-62
2023/09/26 08:29:35;;;;;;;1.45;1.08;;;21.80;78.40;;;;;;5849235;22;45135;-62
2023/09/26 08:32:14;;;;;;;1.95;1.20;;;21.80;78.40;;;;;;5904446;22;45293;-62
2023/09/26 08:35:08;;;;;;;2.20;1.02;;;21.80;78.50;;;;;;5911950;22;45328;-62
2023/09/26 08:38:09;;;;;;;1.83;1.10;;;21.80;78.50;;;;;;5922091;22;46397;-62
2023/09/26 08:41:35;;;;;;;1.38;1.00;;;21.80;78.60;;;;;;5894189;22;45426;-62
2023/09/26 08:44:14;;;;;;;2.28;1.00;;;21.80;78.60;;;;;;5896247;22;45305;-62
2023/09/26 08:46:41;;;;;;;1.30;0.90;;;21.80;78.60;;;;;;5905994;22;45324;-63
2023/09/26 08:49:10;;;;;;;1.30;1.10;;;21.80;78.90;;;;;;5921107;22;46452;-62
2023/09/26 08:51:50;;;;;;;1.23;1.13;;;21.80;79.00;;;;;;5904910;22;45215;-62
2023/09/26 08:54:43;;;;;;;1.70;0.90;;;21.80;79.10;;;;;;5870495;22;45385;-63
2023/09/26 08:57:31;;;;;;;1.20;1.10;;;21.80;79.20;;;;;;5900710;22;45493;-62
2023/09/26 09:00:30;;;;;;;1.35;0.90;;;21.80;79.30;;;;;;5916289;22;46201;-62
2023/09/26 09:02:57;;;;;;;1.80;1.25;;;21.80;79.30;;;;;;5902949;22;45686;-62
2023/09/26 09:05:26;;;;;;;1.00;0.90;;;21.80;79.20;;;;;;5915814;22;45546;-63
2023/09/26 09:15:39;;;;;;;1.75;1.00;;;21.80;79.20;;;;;;5904406;22;45065;-62
2023/09/26 09:18:06;;;;;;;1.73;1.02;;;21.80;79.40;;;;;;5891983;22;45367;-62
2023/09/26 09:20:43;;;;;;;1.02;0.93;;;21.80;79.40;;;;;;5903363;22;45072;-62
2023/09/26 09:23:51;;;;;;;1.70;1.02;;;21.80;79.50;;;;;;5923978;22;46450;-62
2023/09/26 09:26:20;;;;;;;0.90;0.80;;;21.90;79.60;;;;;;5872315;22;45383;-62
2023/09/26 09:28:50;;;;;;;1.00;0.90;;;21.90;79.40;;;;;;5924654;22;45027;-62
2023/09/26 09:31:18;;;;;;;1.05;0.95;;;21.90;79.60;;;;;;5907325;22;45692;-62
2023/09/26 09:33:46;;;;;;;1.58;1.10;;;21.90;79.80;;;;;;5942643;22;47547;-62
2023/09/26 09:36:48;;;;;;;1.35;0.98;;;21.90;79.90;;;;;;5904995;22;45373;-62
2023/09/26 09:39:19;;;;;;;1.00;0.77;;;21.90;80.00;;;;;;5882708;22;45272;-62
2023/09/26 09:42:19;;;;;;;1.05;0.90;;;21.90;79.90;;;;;;5882883;22;45171;-62
2023/09/26 09:48:10;;;;;;;1.08;0.90;;;21.90;79.90;;;;;;5886130;22;45194;-62
2023/09/26 09:50:39;;;;;;;1.25;1.02;;;21.80;79.80;;;;;;5895121;22;45744;-63
2023/09/26 09:53:19;;;;;;;1.35;1.08;;;21.80;79.80;;;;;;5915153;22;45109;-62
2023/09/26 09:56:18;;;;;;;1.40;1.08;;;21.80;78.90;;;;;;5873590;22;46300;-62
2023/09/26 09:59:38;;;;;;;1.25;0.95;;;21.80;78.50;;;;;;5873390;22;45406;-62
2023/09/26 10:05:20;;;;;;;1.38;1.00;;;21.80;78.00;;;;;;5878861;22;45406;-63
2023/09/26 10:08:14;;;;;;;1.98;1.10;;;21.80;78.40;;;;;;5923053;22;45957;-62
2023/09/26 10:10:42;;;;;;;1.60;1.00;;;21.80;78.50;;;;;;5915751;22;45284;-63
2023/09/26 10:13:09;;;;;;;1.00;0.90;;;21.90;78.80;;;;;;5920289;22;45317;-62
2023/09/26 10:16:11;;;;;;;1.40;0.85;;;21.90;78.90;;;;;;5924864;22;45437;-62
2023/09/26 10:18:46;;;;;;;1.77;1.08;;;21.90;79.20;;;;;;5918481;22;46479;-62
2023/09/26 10:21:41;;;;;;;1.83;1.08;;;21.90;79.30;;;;;;5906900;22;45317;-62
2023/09/26 10:24:52;;;;;;;1.50;1.00;;;21.90;79.60;;;;;;5887512;22;45326;-63
2023/09/26 10:27:41;;;;;;;1.67;0.95;;;21.90;80.00;;;;;;5900065;22;45469;-63
2023/09/26 10:30:10;;;;;;;1.13;0.90;;;21.90;79.90;;;;;;5905851;22;45317;-62
2023/09/26 10:32:44;;;;;;;2.35;1.00;;;21.90;79.90;;;;;;5912764;22;45350;-62
2023/09/26 10:35:52;;;;;;;1.35;0.88;;;21.90;79.90;;;;;;5908001;22;45250;-62
2023/09/26 10:38:33;;;;;;;1.23;0.90;;;21.90;79.90;;;;;;5926401;22;45424;-62
2023/09/26 10:41:10;;;;;;;1.20;0.93;;;21.90;79.90;;;;;;5904782;22;45605;-62
2023/09/26 10:43:49;;;;;;;2.33;0.80;;;21.90;79.90;;;;;;5939886;22;45272;-62
2023/09/26 10:46:41;;;;;;;1.25;1.10;;;21.90;79.90;;;;;;5901920;22;45288;-62
2023/09/26 10:49:39;;;;;;;3.08;1.08;;;21.90;80.20;;;;;;5905183;22;45393;-62
2023/09/26 10:55:52;;;;;;;2.88;0.90;;;21.90;80.60;;;;;;5882583;22;45312;-62
2023/09/26 10:58:33;;;;;;;1.27;0.80;;;21.90;80.70;;;;;;5927527;22;45196;-62
2023/09/26 11:01:36;;;;;;;1.55;1.02;;;21.90;80.90;;;;;;5905052;22;45032;-62
2023/09/26 11:04:18;;;;;;;1.48;0.80;;;21.90;80.90;;;;;;5915967;22;46301;-62
2023/09/26 11:07:07;;;;;;;1.88;1.00;;;21.90;81.00;;;;;;5906648;22;45736;-62
2023/09/26 11:10:12;;;;;;;1.25;1.00;;;21.90;81.10;;;;;;5917496;22;45252;-62
2023/09/26 11:12:53;;;;;;;1.35;1.00;;;21.90;81.30;;;;;;5942554;22;45355;-61
2023/09/26 11:15:40;;;;;;;2.10;1.27;;;21.90;81.40;;;;;;5949425;22;47221;-61
2023/09/26 11:18:22;;;;;;;10.15;1.60;;;22.00;82.00;;;;;;5955988;22;45367;-58
2023/09/26 11:21:16;;;;;;;5.22;1.75;;;22.00;82.10;;;;;;5927920;22;45476;-58
2023/09/26 11:24:35;;;;;;;8.77;1.63;;;22.00;82.10;;;;;;5940049;22;45432;-54
2023/09/26 11:27:30;;;;;;;2.90;1.40;;;21.30;86.90;;;;;;5945251;22;47087;-53
2023/09/26 11:32:42;;;;;;;3.60;1.73;;;20.40;93.60;;;;;;5885169;22;45366;-52
2023/09/26 11:35:11;;;;;;;3.22;1.77;;;20.30;91.80;;;;;;5906555;22;45355;-54
2023/09/26 11:40:24;;;;;;;34.80;3.75;;;20.30;94.20;;;;;;5876796;22;45525;-52
2023/09/26 11:49:24;;;;;;;10.00;2.17;;;20.40;98.70;;;;;;5894798;22;45329;-55
2023/09/26 11:52:05;;;;;;;16.35;2.88;;;20.30;92.20;;;;;;5955755;22;45473;-55
2023/09/26 11:54:31;;;;;;;6.07;2.50;;;20.30;94.40;;;;;;5873264;22;45357;-56
2023/09/26 11:57:00;;;;;;;7.38;1.80;;;20.30;93.90;;;;;;5971974;22;45458;-55
2023/09/26 11:59:28;;;;;;;7.93;2.00;;;20.30;95.70;;;;;;5959067;22;45922;-55
2023/09/26 12:02:25;;;;;;;13.98;2.65;;;20.40;96.50;;;;;;5951329;22;45159;-55
2023/09/26 12:04:56;;;;;;;7.07;2.20;;;20.40;98.50;;;;;;5898956;22;45229;-55
2023/09/26 12:07:42;;;;;;;10.02;2.30;;;20.40;96.70;;;;;;5888432;22;45306;-56
2023/09/26 12:10:34;;;;;;;7.38;2.20;;;20.40;98.20;;;;;;5914862;22;45453;-56
2023/09/26 12:13:02;;;;;;;8.80;2.33;;;20.40;98.70;;;;;;5936070;22;45529;-55
2023/09/26 12:15:49;;;;;;;5.53;2.22;;;20.40;98.80;;;;;;5889823;22;45326;-55
2023/09/26 12:18:29;;;;;;;6.47;2.10;;;20.50;98.70;;;;;;5953757;22;45855;-55
2023/09/26 12:21:26;;;;;;;6.35;2.05;;;20.50;98.20;;;;;;5967651;22;45517;-55
2023/09/26 12:24:05;;;;;;;3.00;1.63;;;20.50;94.30;;;;;;5896699;22;45275;-55
2023/09/26 12:26:32;;;;;;;8.32;1.77;;;20.50;98.40;;;;;;5875498;22;45207;-55
2023/09/26 12:29:32;;;;;;;4.03;1.88;;;20.50;99.50;;;;;;5962662;22;45542;-55
2023/09/26 12:32:12;;;;;;;2.22;1.45;;;20.50;98.70;;;;;;5883377;22;45772;-56
2023/09/26 12:34:39;;;;;;;6.25;2.05;;;20.50;99.70;;;;;;5872291;22;45236;-56
2023/09/26 12:37:09;;;;;;;4.47;1.90;;;20.40;98.90;;;;;;5900901;22;45228;-56
2023/09/26 12:39:54;;;;;;;6.80;1.90;;;20.50;97.30;;;;;;5884858;22;45232;-55
2023/09/26 12:42:21;;;;;;;6.68;2.35;;;20.50;97.50;;;;;;5889631;22;45249;-56
2023/09/26 12:45:06;;;;;;;2.25;1.38;;;20.50;95.20;;;;;;5893589;22;45380;-55
2023/09/26 12:47:34;;;;;;;3.45;1.50;;;20.50;99.90;;;;;;5900051;22;45178;-56
2023/09/26 12:50:08;;;;;;;5.45;1.60;;;20.50;99.90;;;;;;5873739;22;45462;-56
2023/09/26 12:53:03;;;;;;;3.42;1.73;;;20.50;99.90;;;;;;5890240;22;47185;-56
2023/09/26 12:55:51;;;;;;;3.53;1.65;;;20.50;99.90;;;;;;5905644;22;45478;-56
2023/09/26 12:58:45;;;;;;;2.58;1.55;;;20.50;99.90;;;;;;5901054;22;45108;-56
2023/09/26 13:01:37;;;;;;;7.43;1.48;;;20.50;99.90;;;;;;5891662;22;45438;-56
2023/09/26 13:04:19;;;;;;;4.95;1.88;;;20.40;99.90;;;;;;5891310;22;46958;-55
2023/09/26 13:07:08;;;;;;;5.60;2.08;;;20.40;99.90;;;;;;5920249;22;45516;-55
2023/09/26 13:13:16;;;;;;;3.00;1.60;;;20.50;99.90;;;;;;5865713;22;45444;-56
2023/09/26 13:16:02;;;;;;;1.95;1.10;;;20.50;99.90;;;;;;5876776;22;46415;-56
2023/09/26 13:18:57;;;;;;;3.83;1.75;;;20.60;99.90;;;;;;5955831;22;45920;-55
2023/09/26 13:21:58;;;;;;;4.35;1.70;;;20.60;99.90;;;;;;6027485;22;45266;-55
2023/09/26 13:24:44;;;;;;;2.47;1.50;;;20.60;99.90;;;;;;5936869;22;45362;-56
2023/09/26 13:27:49;;;;;;;3.40;1.52;;;20.60;99.90;;;;;;5972959;22;46920;-55
2023/09/26 13:30:44;;;;;;;4.18;1.55;;;20.50;99.90;;;;;;5970272;22;45483;-56
2023/09/26 13:33:11;;;;;;;2.67;1.33;;;20.60;99.70;;;;;;5916051;22;45594;-57
2023/09/26 13:35:39;;;;;;;2.78;1.67;;;20.60;99.90;;;;;;5873595;22;45035;-57
2023/09/26 13:40:48;;;;;;;4.03;1.48;;;20.60;99.90;;;;;;5844434;22;45072;-57
2023/09/26 13:43:46;;;;;;;2.65;1.40;;;20.70;99.90;;;;;;6042881;22;45332;-57
2023/09/26 13:46:14;;;;;;;3.53;1.58;;;20.60;99.90;;;;;;5872920;22;45199;-57
2023/09/26 13:49:03;;;;;;;1.88;1.17;;;20.60;99.90;;;;;;5877351;22;47510;-56
2023/09/26 13:51:30;;;;;;;4.38;1.50;;;20.70;99.90;;;;;;5883640;22;45347;-58
2023/09/26 13:54:27;;;;;;;2.05;1.10;;;20.70;99.90;;;;;;5859317;22;45385;-57
2023/09/26 13:57:16;;;;;;;2.42;1.30;;;20.60;99.90;;;;;;5924347;22;45196;-57
2023/09/26 13:59:59;;;;;;;2.83;1.30;;;20.70;99.90;;;;;;5889954;22;46173;-57
2023/09/26 14:02:27;;;;;;;2.22;1.42;;;20.70;99.90;;;;;;5894607;22;45503;-57
2023/09/26 14:05:06;;;;;;;3.75;1.58;;;20.60;99.90;;;;;;5852894;22;45337;-57
2023/09/26 14:07:59;;;;;;;1.70;1.27;;;20.60;99.90;;;;;;5895056;22;45265;-57
2023/09/26 14:10:27;;;;;;;1.73;1.30;;;20.60;99.90;;;;;;5882741;22;45870;-57
2023/09/26 14:13:24;;;;;;;2.00;1.20;;;20.70;99.90;;;;;;5918005;22;45442;-57
2023/09/26 14:15:53;;;;;;;2.33;1.33;;;20.60;99.90;;;;;;5876286;22;45736;-57
2023/09/26 14:18:36;;;;;;;1.50;1.13;;;20.60;99.90;;;;;;5910248;22;46142;-57
2023/09/26 14:21:30;;;;;;;2.63;1.48;;;20.60;99.90;;;;;;5916544;22;45125;-58
2023/09/26 14:23:58;;;;;;;1.63;1.00;;;20.60;99.90;;;;;;5874554;22;45383;-57
2023/09/26 14:26:57;;;;;;;1.65;1.10;;;20.70;99.90;;;;;;5885345;22;45327;-56
2023/09/26 14:29:49;;;;;;;3.92;1.58;;;20.70;99.90;;;;;;5866878;22;45368;-57
2023/09/26 14:32:51;;;;;;;2.55;1.45;;;20.70;99.90;;;;;;5888076;22;46232;-57
2023/09/26 14:35:18;;;;;;;4.00;1.20;;;20.70;99.90;;;;;;5857813;22;45370;-57
2023/09/26 14:40:49;;;;;;;3.78;1.17;;;20.70;99.90;;;;;;5847201;22;45369;-57
2023/09/26 14:43:43;;;;;;;3.85;1.70;;;20.70;99.90;;;;;;5916569;22;46013;-57
2023/09/26 14:49:58;;;;;;;3.40;1.50;;;20.70;99.90;;;;;;5883004;22;45215;-57
2023/09/26 14:53:00;;;;;;;1.75;1.40;;;20.70;99.80;;;;;;5942961;22;45723;-56
2023/09/26 14:55:49;;;;;;;1.95;1.50;;;20.80;99.90;;;;;;5889429;22;45870;-56
2023/09/26 14:58:38;;;;;;;2.72;1.58;;;20.80;99.90;;;;;;5875557;22;45376;-57
2023/09/26 15:01:23;;;;;;;2.58;1.10;;;20.70;99.90;;;;;;5895108;22;45284;-57
2023/09/26 15:03:52;;;;;;;1.33;1.13;;;20.80;99.90;;;;;;5883650;22;44884;-56
2023/09/26 15:06:30;;;;;;;3.10;1.30;;;20.80;99.90;;;;;;5887475;22;46164;-58
2023/09/26 15:09:08;;;;;;;1.27;1.10;;;20.80;99.90;;;;;;5870941;22;44922;-57
2023/09/26 15:12:04;;;;;;;1.52;1.00;;;20.80;99.90;;;;;;5927855;22;45387;-57
2023/09/26 15:14:31;;;;;;;1.80;1.20;;;20.90;99.90;;;;;;5860442;22;45364;-57
2023/09/26 15:16:59;;;;;;;1.70;1.00;;;20.80;99.90;;;;;;5872417;22;45602;-57
2023/09/26 15:19:50;;;;;;;1.98;1.15;;;20.80;99.90;;;;;;5862980;22;44976;-56
2023/09/26 15:25:20;;;;;;;1.27;1.00;;;20.80;99.90;;;;;;5864846;22;45459;-57
2023/09/26 15:28:08;;;;;;;2.38;1.20;;;20.80;99.90;;;;;;5878939;22;45473;-57
2023/09/26 15:31:18;;;;;;;2.80;1.50;;;20.80;99.90;;;;;;5868593;22;45420;-57
2023/09/26 15:33:46;;;;;;;3.60;1.10;;;20.80;99.90;;;;;;5878654;22;45538;-57
2023/09/26 15:36:39;;;;;;;1.63;1.20;;;20.80;99.90;;;;;;5868699;22;45406;-57
2023/09/26 15:39:33;;;;;;;1.98;1.40;;;20.80;99.90;;;;;;5915967;22;45323;-57